Time,TemperatureF,DewpointF,PressureIn,WindDirection,WindDirectionDegrees,WindSpeedMPH,WindSpeedGustMPH,Humidity,HourlyPrecipIn,Conditions,Clouds,dailyrainin,SoftwareType,DateUTC
2013-01-07 09:01:00,43.2,42.7,30.25,NW,317,0.0,0.0,98,0.00,,,0.00,WeatherCatV1.11B39,2013-01-07 17:01:00,
2013-01-07 09:06:00,43.4,42.9,30.25,NW,317,0.0,0.0,98,0.00,,,0.00,WeatherCatV1.11B39,2013-01-07 17:06:00,
2013-01-07 09:11:00,43.5,43.0,30.25,NW,317,0.0,0.0,98,0.00,,,0.00,WeatherCatV1.11B39,2013-01-07 17:11:00,
2013-01-07 09:16:00,43.6,43.1,30.25,NW,317,0.0,0.0,98,0.00,,,0.00,WeatherCatV1.11B39,2013-01-07 17:16:00,
2013-01-07 09:21:00,43.7,43.2,30.25,NW,317,0.0,0.0,98,0.00,,,0.00,WeatherCatV1.11B39,2013-01-07 17:21:00,
2013-01-07 09:26:00,43.9,43.4,30.25,NW,317,0.0,0.0,98,0.00,,,0.00,WeatherCatV1.11B39,2013-01-07 17:26:00,
2013-01-07 09:31:00,44.0,43.5,30.25,NW,317,0.0,0.0,98,0.00,,,0.00,WeatherCatV1.11B39,2013-01-07 17:31:00,
2013-01-07 09:36:00,44.0,43.5,30.25,NW,317,0.0,0.0,98,0.00,,,0.00,WeatherCatV1.11B39,2013-01-07 17:36:00,
2013-01-07 09:41:00,44.1,43.6,30.25,NW,317,0.0,0.0,98,0.00,,,0.00,WeatherCatV1.11B39,2013-01-07 17:41:00,
2013-01-07 09:46:00,44.1,43.6,30.25,NW,317,0.0,0.0,98,0.00,,,0.00,WeatherCatV1.11B39,2013-01-07 17:46:00,
2013-01-07 09:51:00,44.2,43.7,30.25,NW,317,0.0,0.0,98,0.00,,,0.00,WeatherCatV1.11B39,2013-01-07 17:51:00,
2013-01-07 09:56:00,44.2,43.7,30.25,NW,317,0.0,0.0,98,0.00,,,0.00,WeatherCatV1.11B39,2013-01-07 17:56:00,
2013-01-07 10:01:00,44.2,43.4,30.25,East,90,0.0,0.0,97,0.00,,,0.00,WeatherCatV1.11B39,2013-01-07 18:01:00,
2013-01-07 10:06:00,44.3,43.5,30.25,East,98,0.0,0.0,97,0.00,,,0.00,WeatherCatV1.11B39,2013-01-07 18:06:00,
2013-01-07 10:11:00,44.4,43.6,30.24,East,96,0.0,0.0,97,0.00,,,0.00,WeatherCatV1.11B39,2013-01-07 18:11:00,
2013-01-07 10:16:00,44.5,43.7,30.24,ESE,102,0.0,0.0,97,0.00,,,0.00,WeatherCatV1.11B39,2013-01-07 18:16:00,
2013-01-07 10:21:00,44.5,43.7,30.24,ESE,107,0.0,0.0,97,0.00,,,0.00,WeatherCatV1.11B39,2013-01-07 18:21:00,
2013-01-07 10:26:00,44.6,43.8,30.25,East,96,0.0,0.0,97,0.00,,,0.00,WeatherCatV1.11B39,2013-01-07 18:26:00,
2013-01-07 10:31:00,44.6,43.8,30.25,East,96,0.0,0.0,97,0.00,,,0.00,WeatherCatV1.11B39,2013-01-07 18:31:00,
2013-01-07 10:36:00,44.5,43.7,30.25,East,96,0.0,0.0,97,0.00,,,0.00,WeatherCatV1.11B39,2013-01-07 18:36:00,
2013-01-07 10:41:00,44.5,43.7,30.25,East,96,0.0,0.0,97,0.00,,,0.00,WeatherCatV1.11B39,2013-01-07 18:41:00,
2013-01-07 10:46:00,44.6,43.8,30.24,East,96,0.0,0.0,97,0.00,,,0.00,WeatherCatV1.11B39,2013-01-07 18:46:00,
2013-01-07 10:51:00,44.7,43.9,30.24,East,96,0.0,0.0,97,0.00,,,0.00,WeatherCatV1.11B39,2013-01-07 18:51:00,
2013-01-07 10:56:00,44.9,44.1,30.24,East,95,0.0,0.0,97,0.00,,,0.00,WeatherCatV1.11B39,2013-01-07 18:56:00,
2013-01-07 11:01:00,45.0,44.2,30.23,East,97,0.0,0.0,97,0.00,,,0.00,WeatherCatV1.11B39,2013-01-07 19:01:00,
2013-01-07 11:06:00,45.0,43.9,30.22,East,100,0.0,0.0,96,0.00,,,0.00,WeatherCatV1.11B39,2013-01-07 19:06:00,
2013-01-07 11:11:00,45.0,43.9,30.22,East,82,0.0,0.0,96,0.00,,,0.00,WeatherCatV1.11B39,2013-01-07 19:11:00,
2013-01-07 11:16:00,44.9,43.8,30.21,East,101,0.0,0.0,96,0.00,,,0.00,WeatherCatV1.11B39,2013-01-07 19:16:00,
2013-01-07 11:21:00,44.8,43.7,30.21,ESE,103,0.0,0.0,96,0.00,,,0.00,WeatherCatV1.11B39,2013-01-07 19:21:00,
2013-01-07 11:26:00,44.9,43.8,30.21,ESE,109,0.0,0.0,96,0.00,,,0.00,WeatherCatV1.11B39,2013-01-07 19:26:00,
2013-01-07 11:31:00,45.1,44.0,30.20,ENE,75,0.0,0.0,96,0.00,,,0.00,WeatherCatV1.11B39,2013-01-07 19:31:00,
2013-01-07 11:36:00,45.2,44.1,30.20,ENE,74,0.0,0.0,96,0.00,,,0.00,WeatherCatV1.11B39,2013-01-07 19:36:00,
2013-01-07 11:41:00,45.4,44.3,30.20,East,98,0.0,0.0,96,0.00,,,0.00,WeatherCatV1.11B39,2013-01-07 19:41:00,
2013-01-07 11:46:00,45.5,44.4,30.20,East,99,0.0,0.0,96,0.00,,,0.00,WeatherCatV1.11B39,2013-01-07 19:46:00,
2013-01-07 11:51:00,45.5,44.2,30.20,East,94,0.0,0.0,95,0.00,,,0.00,WeatherCatV1.11B39,2013-01-07 19:51:00,
2013-01-07 11:56:00,45.6,44.3,30.20,East,94,0.0,0.0,95,0.00,,,0.00,WeatherCatV1.11B39,2013-01-07 19:56:00,
2013-01-07 12:01:00,45.8,44.4,30.20,East,94,0.0,0.0,95,0.00,,,0.00,WeatherCatV1.11B39,2013-01-07 20:01:00,
2013-01-07 12:06:00,45.9,44.5,30.21,East,95,0.0,0.0,95,0.00,,,0.00,WeatherCatV1.11B39,2013-01-07 20:06:00,
2013-01-07 12:11:00,46.0,44.6,30.20,East,95,0.0,0.0,95,0.00,,,0.00,WeatherCatV1.11B39,2013-01-07 20:11:00,
2013-01-07 12:16:00,46.1,44.5,30.20,East,95,0.0,0.0,94,0.00,,,0.00,WeatherCatV1.11B39,2013-01-07 20:16:00,
2013-01-07 12:21:00,46.3,44.9,30.20,East,95,0.0,0.0,95,0.00,,,0.00,WeatherCatV1.11B39,2013-01-07 20:21:00,
2013-01-07 12:26:00,46.5,44.9,30.20,East,98,0.0,0.0,94,0.00,,,0.00,WeatherCatV1.11B39,2013-01-07 20:26:00,
2013-01-07 12:31:00,46.6,45.0,30.20,East,98,0.0,0.0,94,0.00,,,0.00,WeatherCatV1.11B39,2013-01-07 20:31:00,
2013-01-07 12:36:00,46.6,44.7,30.20,East,98,0.0,0.0,93,0.00,,,0.00,WeatherCatV1.11B39,2013-01-07 20:36:00,
2013-01-07 12:41:00,46.6,44.7,30.20,East,98,0.0,0.0,93,0.00,,,0.00,WeatherCatV1.11B39,2013-01-07 20:41:00,
2013-01-07 12:46:00,46.5,44.3,30.20,East,98,0.0,0.0,92,0.00,,,0.00,WeatherCatV1.11B39,2013-01-07 20:46:00,
2013-01-07 12:51:00,46.6,44.4,30.20,East,98,0.0,0.0,92,0.00,,,0.00,WeatherCatV1.11B39,2013-01-07 20:51:00,
2013-01-07 12:56:00,46.8,44.6,30.20,East,98,0.0,0.0,92,0.00,,,0.00,WeatherCatV1.11B39,2013-01-07 20:56:00,
2013-01-07 13:01:00,46.8,44.6,30.20,East,98,0.0,0.0,92,0.00,,,0.00,WeatherCatV1.11B39,2013-01-07 21:01:00,
2013-01-07 13:06:00,46.9,44.7,30.20,East,98,0.0,0.0,92,0.00,,,0.00,WeatherCatV1.11B39,2013-01-07 21:06:00,
2013-01-07 13:11:00,47.0,44.8,30.20,East,98,0.0,0.0,92,0.00,,,0.00,WeatherCatV1.11B39,2013-01-07 21:11:00,
2013-01-07 13:16:00,47.1,44.6,30.20,East,98,0.0,0.0,91,0.00,,,0.00,WeatherCatV1.11B39,2013-01-07 21:16:00,
2013-01-07 13:21:00,47.3,44.8,30.19,East,98,0.0,0.0,91,0.00,,,0.00,WeatherCatV1.11B39,2013-01-07 21:21:00,
2013-01-07 13:26:00,47.4,44.9,30.20,East,98,0.0,0.0,91,0.00,,,0.00,WeatherCatV1.11B39,2013-01-07 21:26:00,
2013-01-07 13:31:00,47.5,44.7,30.20,East,98,0.0,0.0,90,0.00,,,0.00,WeatherCatV1.11B39,2013-01-07 21:31:00,
2013-01-07 13:36:00,47.7,44.9,30.19,East,98,0.0,0.0,90,0.00,,,0.00,WeatherCatV1.11B39,2013-01-07 21:36:00,
2013-01-07 13:41:00,47.8,45.0,30.20,East,98,0.0,0.0,90,0.00,,,0.00,WeatherCatV1.11B39,2013-01-07 21:41:00,
2013-01-07 13:46:00,47.8,44.4,30.19,East,98,0.0,0.0,88,0.00,,,0.00,WeatherCatV1.11B39,2013-01-07 21:46:00,
2013-01-07 13:51:00,47.9,44.5,30.19,East,98,0.0,0.0,88,0.00,,,0.00,WeatherCatV1.11B39,2013-01-07 21:51:00,
2013-01-07 13:56:00,48.1,44.7,30.18,East,88,0.0,0.0,88,0.00,,,0.00,WeatherCatV1.11B39,2013-01-07 21:56:00,
2013-01-07 14:01:00,48.2,44.8,30.18,East,84,0.0,0.0,88,0.00,,,0.00,WeatherCatV1.11B39,2013-01-07 22:01:00,
2013-01-07 14:06:00,48.3,44.6,30.18,NNE,24,0.0,0.0,87,0.00,,,0.00,WeatherCatV1.11B39,2013-01-07 22:06:00,
2013-01-07 14:11:00,48.3,44.6,30.18,NE,39,0.0,0.0,87,0.00,,,0.00,WeatherCatV1.11B39,2013-01-07 22:11:00,
2013-01-07 14:16:00,48.5,44.8,30.18,ENE,58,0.0,0.0,87,0.00,,,0.00,WeatherCatV1.11B39,2013-01-07 22:16:00,
2013-01-07 14:21:00,48.7,45.0,30.17,ENE,76,0.0,0.0,87,0.00,,,0.00,WeatherCatV1.11B39,2013-01-07 22:21:00,
2013-01-07 14:26:00,48.7,45.0,30.17,East,88,0.0,0.0,87,0.00,,,0.00,WeatherCatV1.11B39,2013-01-07 22:26:00,
2013-01-07 14:31:00,48.7,44.7,30.17,East,79,0.0,0.0,86,0.00,,,0.00,WeatherCatV1.11B39,2013-01-07 22:31:00,
2013-01-07 14:36:00,48.7,44.7,30.17,ESE,105,0.0,0.0,86,0.00,,,0.00,WeatherCatV1.11B39,2013-01-07 22:36:00,
2013-01-07 14:41:00,48.9,44.3,30.17,ENE,64,0.0,0.0,84,0.00,,,0.00,WeatherCatV1.11B39,2013-01-07 22:41:00,
2013-01-07 14:46:00,49.0,44.7,30.17,ENE,78,0.0,0.0,85,0.00,,,0.00,WeatherCatV1.11B39,2013-01-07 22:46:00,
2013-01-07 14:51:00,49.1,44.8,30.16,ENE,64,0.0,0.0,85,0.00,,,0.00,WeatherCatV1.11B39,2013-01-07 22:51:00,
2013-01-07 14:56:00,49.2,44.6,30.16,East,95,0.0,0.0,84,0.00,,,0.00,WeatherCatV1.11B39,2013-01-07 22:56:00,
2013-01-07 15:01:00,49.2,44.3,30.17,East,98,0.0,0.0,83,0.00,,,0.00,WeatherCatV1.11B39,2013-01-07 23:01:00,
2013-01-07 15:06:00,49.1,43.8,30.17,ESE,123,0.0,0.0,82,0.00,,,0.00,WeatherCatV1.11B39,2013-01-07 23:06:00,
2013-01-07 15:11:00,49.1,43.5,30.17,ESE,123,0.0,0.0,81,0.00,,,0.00,WeatherCatV1.11B39,2013-01-07 23:11:00,
2013-01-07 15:16:00,49.1,43.5,30.17,ESE,123,0.0,0.0,81,0.00,,,0.00,WeatherCatV1.11B39,2013-01-07 23:16:00,
2013-01-07 15:21:00,49.1,42.9,30.17,ESE,123,0.0,0.0,79,0.00,,,0.00,WeatherCatV1.11B39,2013-01-07 23:21:00,
2013-01-07 15:26:00,49.2,43.6,30.17,ESE,123,0.0,0.0,81,0.00,,,0.00,WeatherCatV1.11B39,2013-01-07 23:26:00,
2013-01-07 15:31:00,49.2,43.6,30.17,ESE,122,0.0,0.0,81,0.00,,,0.00,WeatherCatV1.11B39,2013-01-07 23:31:00,
2013-01-07 15:36:00,49.3,43.4,30.17,ESE,122,0.0,0.0,80,0.00,,,0.00,WeatherCatV1.11B39,2013-01-07 23:36:00,
2013-01-07 15:41:00,49.2,43.3,30.17,ESE,123,0.0,0.0,80,0.00,,,0.00,WeatherCatV1.11B39,2013-01-07 23:41:00,
2013-01-07 15:46:00,49.2,43.0,30.17,ESE,123,0.0,0.0,79,0.00,,,0.00,WeatherCatV1.11B39,2013-01-07 23:46:00,
2013-01-07 15:51:00,49.2,43.0,30.17,ESE,123,0.0,0.0,79,0.00,,,0.00,WeatherCatV1.11B39,2013-01-07 23:51:00,
2013-01-07 15:56:00,49.2,42.6,30.17,ESE,123,0.0,0.0,78,0.00,,,0.00,WeatherCatV1.11B39,2013-01-07 23:56:00,
2013-01-07 16:01:00,49.1,42.5,30.17,ESE,123,0.0,0.0,78,0.00,,,0.00,WeatherCatV1.11B39,2013-01-08 00:01:00,
2013-01-07 16:06:00,49.1,42.2,30.17,ESE,123,0.0,0.0,77,0.00,,,0.00,WeatherCatV1.11B39,2013-01-08 00:06:00,
2013-01-07 16:11:00,49.0,42.1,30.17,ESE,122,0.0,0.0,77,0.00,,,0.00,WeatherCatV1.11B39,2013-01-08 00:11:00,
2013-01-07 16:16:00,49.0,42.1,30.17,ESE,123,0.0,0.0,77,0.00,,,0.00,WeatherCatV1.11B39,2013-01-08 00:16:00,
2013-01-07 16:21:00,48.9,42.0,30.17,ESE,123,0.0,0.0,77,0.00,,,0.00,WeatherCatV1.11B39,2013-01-08 00:21:00,
2013-01-07 16:26:00,48.8,42.2,30.17,ESE,122,0.0,0.0,78,0.00,,,0.00,WeatherCatV1.11B39,2013-01-08 00:26:00,
2013-01-07 16:31:00,48.7,42.2,30.17,ESE,123,0.0,0.0,78,0.00,,,0.00,WeatherCatV1.11B39,2013-01-08 00:31:00,
2013-01-07 16:36:00,48.6,42.1,30.17,ESE,123,0.0,0.0,78,0.00,,,0.00,WeatherCatV1.11B39,2013-01-08 00:36:00,
2013-01-07 16:41:00,48.4,41.9,30.17,ESE,123,0.0,0.0,78,0.00,,,0.00,WeatherCatV1.11B39,2013-01-08 00:41:00,
2013-01-07 16:46:00,48.1,41.6,30.17,ESE,123,0.0,0.0,78,0.00,,,0.00,WeatherCatV1.11B39,2013-01-08 00:46:00,
2013-01-07 16:51:00,48.0,41.5,30.18,ESE,123,0.0,0.0,78,0.00,,,0.00,WeatherCatV1.11B39,2013-01-08 00:51:00,
2013-01-07 16:56:00,47.7,41.5,30.18,ESE,123,0.0,0.0,79,0.00,,,0.00,WeatherCatV1.11B39,2013-01-08 00:56:00,
2013-01-07 17:01:00,47.4,41.9,30.17,ESE,122,0.0,0.0,81,0.00,,,0.00,WeatherCatV1.11B39,2013-01-08 01:01:00,
2013-01-07 17:06:00,47.0,41.8,30.17,ESE,123,0.0,0.0,82,0.00,,,0.00,WeatherCatV1.11B39,2013-01-08 01:06:00,
2013-01-07 17:11:00,46.7,41.2,30.17,ESE,123,0.0,0.0,81,0.00,,,0.00,WeatherCatV1.11B39,2013-01-08 01:11:00,
2013-01-07 17:16:00,46.5,41.3,30.17,ESE,122,0.0,0.0,82,0.00,,,0.00,WeatherCatV1.11B39,2013-01-08 01:16:00,
2013-01-07 17:21:00,46.3,41.4,30.17,ESE,123,0.0,0.0,83,0.00,,,0.00,WeatherCatV1.11B39,2013-01-08 01:21:00,
2013-01-07 17:26:00,45.9,41.0,30.17,ESE,123,0.0,0.0,83,0.00,,,0.00,WeatherCatV1.11B39,2013-01-08 01:26:00,
2013-01-07 17:31:00,45.6,41.0,30.17,ESE,123,0.0,0.0,84,0.00,,,0.00,WeatherCatV1.11B39,2013-01-08 01:31:00,
2013-01-07 17:36:00,45.3,40.8,30.17,ESE,123,0.0,0.0,84,0.00,,,0.00,WeatherCatV1.11B39,2013-01-08 01:36:00,
2013-01-07 17:41:00,45.0,40.8,30.17,ESE,123,0.0,0.0,85,0.00,,,0.00,WeatherCatV1.11B39,2013-01-08 01:41:00,
2013-01-07 17:46:00,44.6,40.1,30.17,ESE,123,0.0,0.0,84,0.00,,,0.00,WeatherCatV1.11B39,2013-01-08 01:46:00,
2013-01-07 17:51:00,44.3,39.8,30.17,ESE,123,0.0,0.0,84,0.00,,,0.00,WeatherCatV1.11B39,2013-01-08 01:51:00,
2013-01-07 17:56:00,43.9,39.1,30.17,ESE,122,0.0,0.0,83,0.00,,,0.00,WeatherCatV1.11B39,2013-01-08 01:56:00,
2013-01-07 18:01:00,43.4,38.6,30.17,ESE,122,0.0,0.0,83,0.00,,,0.00,WeatherCatV1.11B39,2013-01-08 02:01:00,
2013-01-07 18:06:00,43.1,38.6,30.17,ESE,123,0.0,0.0,84,0.00,,,0.00,WeatherCatV1.11B39,2013-01-08 02:06:00,
2013-01-07 18:11:00,42.8,38.9,30.17,ESE,123,0.0,0.0,86,0.00,,,0.00,WeatherCatV1.11B39,2013-01-08 02:11:00,
2013-01-07 18:16:00,42.5,38.3,30.17,ESE,123,0.0,0.0,85,0.00,,,0.00,WeatherCatV1.11B39,2013-01-08 02:16:00,
2013-01-07 18:21:00,42.1,37.9,30.17,ESE,123,0.0,0.0,85,0.00,,,0.00,WeatherCatV1.11B39,2013-01-08 02:21:00,
2013-01-07 18:26:00,42.0,38.4,30.16,ESE,123,0.0,0.0,87,0.00,,,0.00,WeatherCatV1.11B39,2013-01-08 02:26:00,
2013-01-07 18:31:00,41.7,38.1,30.16,ESE,123,0.0,0.0,87,0.00,,,0.00,WeatherCatV1.11B39,2013-01-08 02:31:00,
2013-01-07 18:36:00,41.3,37.4,30.16,ESE,122,0.0,0.0,86,0.00,,,0.00,WeatherCatV1.11B39,2013-01-08 02:36:00,
2013-01-07 18:41:00,41.1,37.5,30.16,ESE,122,0.0,0.0,87,0.00,,,0.00,WeatherCatV1.11B39,2013-01-08 02:41:00,
2013-01-07 18:46:00,40.9,37.6,30.16,ESE,123,0.0,0.0,88,0.00,,,0.00,WeatherCatV1.11B39,2013-01-08 02:46:00,
2013-01-07 18:51:00,40.6,37.6,30.15,ESE,122,0.0,0.0,89,0.00,,,0.00,WeatherCatV1.11B39,2013-01-08 02:51:00,
2013-01-07 18:56:00,40.4,37.4,30.16,ESE,123,0.0,0.0,89,0.00,,,0.00,WeatherCatV1.11B39,2013-01-08 02:56:00,
2013-01-07 19:01:00,40.2,37.5,30.16,ESE,123,0.0,0.0,90,0.00,,,0.00,WeatherCatV1.11B39,2013-01-08 03:01:00,
2013-01-07 19:06:00,40.0,37.3,30.16,ESE,122,0.0,0.0,90,0.00,,,0.00,WeatherCatV1.11B39,2013-01-08 03:06:00,
2013-01-07 19:11:00,39.9,37.2,30.16,ESE,123,0.0,0.0,90,0.00,,,0.00,WeatherCatV1.11B39,2013-01-08 03:11:00,
2013-01-07 19:16:00,39.7,37.0,30.16,ESE,123,0.0,0.0,90,0.00,,,0.00,WeatherCatV1.11B39,2013-01-08 03:16:00,
2013-01-07 19:21:00,39.5,36.8,30.16,ESE,123,0.0,0.0,90,0.00,,,0.00,WeatherCatV1.11B39,2013-01-08 03:21:00,
2013-01-07 19:26:00,39.3,36.6,30.16,ESE,123,0.0,0.0,90,0.00,,,0.00,WeatherCatV1.11B39,2013-01-08 03:26:00,
2013-01-07 19:31:00,39.1,36.4,30.17,ESE,123,0.0,0.0,90,0.00,,,0.00,WeatherCatV1.11B39,2013-01-08 03:31:00,
2013-01-07 19:36:00,38.8,35.8,30.16,ESE,123,0.0,0.0,89,0.00,,,0.00,WeatherCatV1.11B39,2013-01-08 03:36:00,
2013-01-07 19:41:00,38.7,36.0,30.16,ESE,122,0.0,0.0,90,0.00,,,0.00,WeatherCatV1.11B39,2013-01-08 03:41:00,
2013-01-07 19:46:00,38.5,35.8,30.16,ESE,123,0.0,0.0,90,0.00,,,0.00,WeatherCatV1.11B39,2013-01-08 03:46:00,
2013-01-07 19:51:00,38.2,35.5,30.16,ESE,123,0.0,0.0,90,0.00,,,0.00,WeatherCatV1.11B39,2013-01-08 03:51:00,
2013-01-07 19:56:00,38.1,35.4,30.16,ESE,123,0.0,0.0,90,0.00,,,0.00,WeatherCatV1.11B39,2013-01-08 03:56:00,
2013-01-07 20:01:00,37.9,35.5,30.16,ESE,123,0.0,0.0,91,0.00,,,0.00,WeatherCatV1.11B39,2013-01-08 04:01:00,
2013-01-07 20:06:00,37.7,35.3,30.16,ESE,123,0.0,0.0,91,0.00,,,0.00,WeatherCatV1.11B39,2013-01-08 04:06:00,
2013-01-07 20:11:00,37.6,35.2,30.16,ESE,123,0.0,0.0,91,0.00,,,0.00,WeatherCatV1.11B39,2013-01-08 04:11:00,
2013-01-07 20:16:00,37.5,35.1,30.16,ESE,122,0.0,0.0,91,0.00,,,0.00,WeatherCatV1.11B39,2013-01-08 04:16:00,
2013-01-07 20:21:00,37.5,35.4,30.16,ESE,123,0.0,0.0,92,0.00,,,0.00,WeatherCatV1.11B39,2013-01-08 04:21:00,
2013-01-07 20:26:00,37.4,35.3,30.16,ESE,123,0.0,0.0,92,0.00,,,0.00,WeatherCatV1.11B39,2013-01-08 04:26:00,
2013-01-07 20:31:00,37.3,35.5,30.16,ESE,123,0.0,0.0,93,0.00,,,0.00,WeatherCatV1.11B39,2013-01-08 04:31:00,
2013-01-07 20:36:00,37.2,35.4,30.16,ESE,122,0.0,0.0,93,0.00,,,0.00,WeatherCatV1.11B39,2013-01-08 04:36:00,
2013-01-07 20:41:00,37.2,35.4,30.16,ESE,123,0.0,0.0,93,0.00,,,0.00,WeatherCatV1.11B39,2013-01-08 04:41:00,
2013-01-07 20:46:00,37.3,35.7,30.16,ESE,123,0.0,0.0,94,0.00,,,0.00,WeatherCatV1.11B39,2013-01-08 04:46:00,
2013-01-07 20:51:00,37.2,35.6,30.16,ESE,122,0.0,0.0,94,0.00,,,0.00,WeatherCatV1.11B39,2013-01-08 04:51:00,
2013-01-07 20:56:00,37.1,35.5,30.16,ESE,123,0.0,0.0,94,0.00,,,0.00,WeatherCatV1.11B39,2013-01-08 04:56:00,
2013-01-07 21:00:00,37.1,35.5,30.16,ESE,123,0.0,0.0,94,0.00,,,0.00,WeatherCatV1.11B39,2013-01-08 05:00:00,
2013-01-07 21:05:00,37.0,35.4,30.16,ESE,123,0.0,0.0,94,0.00,,,0.00,WeatherCatV1.11B39,2013-01-08 05:05:00,
2013-01-07 21:10:00,36.8,35.2,30.17,ESE,122,0.0,0.0,94,0.00,,,0.00,WeatherCatV1.11B39,2013-01-08 05:10:00,
2013-01-07 21:15:00,36.7,35.1,30.17,ESE,122,0.0,0.0,94,0.00,,,0.00,WeatherCatV1.11B39,2013-01-08 05:15:00,
2013-01-07 21:20:00,36.6,35.0,30.17,ESE,123,0.0,0.0,94,0.00,,,0.00,WeatherCatV1.11B39,2013-01-08 05:20:00,
2013-01-07 21:25:00,36.5,34.9,30.17,ESE,123,0.0,0.0,94,0.00,,,0.00,WeatherCatV1.11B39,2013-01-08 05:25:00,
2013-01-07 21:30:00,36.4,34.8,30.18,ESE,123,0.0,0.0,94,0.00,,,0.00,WeatherCatV1.11B39,2013-01-08 05:30:00,
2013-01-07 21:35:00,36.4,34.8,30.17,ESE,122,0.0,0.0,94,0.00,,,0.00,WeatherCatV1.11B39,2013-01-08 05:35:00,
2013-01-07 21:40:00,36.3,34.7,30.18,ESE,123,0.0,0.0,94,0.00,,,0.00,WeatherCatV1.11B39,2013-01-08 05:40:00,
2013-01-07 21:45:00,36.3,34.7,30.18,ESE,123,0.0,0.0,94,0.00,,,0.00,WeatherCatV1.11B39,2013-01-08 05:45:00,
2013-01-07 21:50:00,36.1,34.8,30.18,ESE,122,0.0,0.0,95,0.00,,,0.00,WeatherCatV1.11B39,2013-01-08 05:50:00,
2013-01-07 21:55:00,36.0,34.4,30.18,ESE,123,0.0,0.0,94,0.00,,,0.00,WeatherCatV1.11B39,2013-01-08 05:55:00,
2013-01-07 22:00:00,35.9,34.3,30.18,ESE,123,0.0,0.0,94,0.00,,,0.00,WeatherCatV1.11B39,2013-01-08 06:00:00,
2013-01-07 22:05:00,35.7,34.1,30.18,ESE,122,0.0,0.0,94,0.00,,,0.00,WeatherCatV1.11B39,2013-01-08 06:05:00,
2013-01-07 22:10:00,35.6,34.0,30.18,ESE,123,0.0,0.0,94,0.00,,,0.00,WeatherCatV1.11B39,2013-01-08 06:10:00,
2013-01-07 22:15:00,35.5,33.9,30.18,ESE,122,0.0,0.0,94,0.00,,,0.00,WeatherCatV1.11B39,2013-01-08 06:15:00,
2013-01-07 22:20:00,35.4,33.8,30.18,ESE,123,0.0,0.0,94,0.00,,,0.00,WeatherCatV1.11B39,2013-01-08 06:20:00,
2013-01-07 22:25:00,35.3,34.0,30.18,ESE,122,0.0,0.0,95,0.00,,,0.00,WeatherCatV1.11B39,2013-01-08 06:25:00,
2013-01-07 22:30:00,35.3,33.7,30.18,ESE,123,0.0,0.0,94,0.00,,,0.00,WeatherCatV1.11B39,2013-01-08 06:30:00,
2013-01-07 22:35:00,35.2,33.9,30.18,ESE,123,0.0,0.0,95,0.00,,,0.00,WeatherCatV1.11B39,2013-01-08 06:35:00,
2013-01-07 22:40:00,35.2,33.9,30.18,ESE,122,0.0,0.0,95,0.00,,,0.00,WeatherCatV1.11B39,2013-01-08 06:40:00,
2013-01-07 22:45:00,35.3,34.0,30.19,ESE,123,0.0,0.0,95,0.00,,,0.00,WeatherCatV1.11B39,2013-01-08 06:45:00,
2013-01-07 22:50:00,35.4,34.1,30.19,ESE,122,0.0,0.0,95,0.00,,,0.00,WeatherCatV1.11B39,2013-01-08 06:50:00,
2013-01-07 22:55:00,35.5,34.2,30.19,ESE,122,0.0,0.0,95,0.00,,,0.00,WeatherCatV1.11B39,2013-01-08 06:55:00,
2013-01-07 23:00:00,35.7,34.4,30.18,ESE,122,0.0,0.0,95,0.00,,,0.00,WeatherCatV1.11B39,2013-01-08 07:00:00,
2013-01-07 23:05:00,35.8,34.5,30.18,ESE,123,0.0,0.0,95,0.00,,,0.00,WeatherCatV1.11B39,2013-01-08 07:05:00,
2013-01-07 23:10:00,35.9,34.9,30.19,ESE,123,0.0,0.0,96,0.00,,,0.00,WeatherCatV1.11B39,2013-01-08 07:10:00,
2013-01-07 23:15:00,36.0,35.0,30.18,ESE,122,0.0,0.0,96,0.00,,,0.00,WeatherCatV1.11B39,2013-01-08 07:15:00,
2013-01-07 23:20:00,36.2,35.2,30.18,ESE,123,0.0,0.0,96,0.00,,,0.00,WeatherCatV1.11B39,2013-01-08 07:20:00,
2013-01-07 23:25:00,36.2,35.2,30.17,ESE,123,0.0,0.0,96,0.00,,,0.00,WeatherCatV1.11B39,2013-01-08 07:25:00,
2013-01-07 23:30:00,36.2,35.2,30.18,ESE,122,0.0,0.0,96,0.00,,,0.00,WeatherCatV1.11B39,2013-01-08 07:30:00,
2013-01-07 23:35:00,36.3,35.3,30.18,ESE,123,0.0,0.0,96,0.00,,,0.00,WeatherCatV1.11B39,2013-01-08 07:35:00,
2013-01-07 23:40:00,36.3,35.3,30.18,ESE,122,0.0,0.0,96,0.00,,,0.00,WeatherCatV1.11B39,2013-01-08 07:40:00,
2013-01-07 23:45:00,36.5,35.5,30.19,ESE,123,0.0,0.0,96,0.00,,,0.00,WeatherCatV1.11B39,2013-01-08 07:45:00,
2013-01-07 23:50:00,36.8,35.8,30.18,ESE,123,0.0,0.0,96,0.00,,,0.00,WeatherCatV1.11B39,2013-01-08 07:50:00,
2013-01-07 23:55:00,37.0,36.2,30.18,ESE,122,0.0,0.0,97,0.00,,,0.00,WeatherCatV1.11B39,2013-01-08 07:55:00,